This is the latest recevied weather packets stored in our database for station/object W6JCZ-13. If no packets are shown the sender has not sent any weather packets the latest 10 day(s).
| Time | Temp. | Humidity | Pressure | Rain* | Wind** | Luminosity | Snow |
|---|---|---|---|---|---|---|---|
| 1777586417 | 30° C | 38% | 1010 hPa | 0 mm | - | - | - |
| 1777585817 | 30° C | 38% | 1010.1 hPa | 0 mm | - | - | - |
| 1777585217 | 30° C | 39% | 1010.1 hPa | 0 mm | - | - | - |
| 1777584617 | 29.44° C | 38% | 1010.3 hPa | 0 mm | - | - | - |
| 1777584017 | 29.44° C | 36% | 1010.4 hPa | 0 mm | - | - | - |
| 1777583417 | 28.89° C | 40% | 1010.5 hPa | 0 mm | - | - | - |
| 1777582817 | 28.89° C | 41% | 1010.6 hPa | 0 mm | - | - | - |
| 1777582217 | 28.89° C | 41% | 1010.7 hPa | 0 mm | - | - | - |
| 1777581617 | 28.89° C | 41% | 1010.8 hPa | 0 mm | - | - | - |
| 1777581017 | 28.33° C | 41% | 1011 hPa | 0 mm | - | - | - |
| 1777580417 | 27.78° C | 43% | 1011 hPa | 0 mm | - | - | - |
| 1777579817 | 27.78° C | 45% | 1011.2 hPa | 0 mm | - | - | - |
| 1777579217 | 27.22° C | 45% | 1011.2 hPa | 0 mm | - | - | - |
| 1777578617 | 27.22° C | 43% | 1011.3 hPa | 0 mm | - | - | - |
| 1777578017 | 26.67° C | 45% | 1011.5 hPa | 0 mm | - | - | - |
| 1777577417 | 26.67° C | 44% | 1011.7 hPa | 0 mm | - | - | - |
| 1777576817 | 26.11° C | 44% | 1011.8 hPa | 0 mm | - | - | - |
| 1777576218 | 26.11° C | 48% | 1011.9 hPa | 0 mm | - | - | - |
| 1777575617 | 25.56° C | 47% | 1012.1 hPa | 0 mm | - | - | - |
| 1777575017 | 24.44° C | 56% | 1012.1 hPa | 0 mm | - | - | - |
| 1777574417 | 24.44° C | 50% | 1012.3 hPa | 0 mm | - | - | - |
| 1777573817 | 23.33° C | 55% | 1012.4 hPa | 0 mm | - | - | - |
| 1777573217 | 23.33° C | 53% | 1012.5 hPa | 0 mm | - | - | - |
| 1777572617 | 22.78° C | 55% | 1012.6 hPa | 0 mm | - | - | - |
| 1777572017 | 22.78° C | 55% | 1012.7 hPa | 0 mm | - | - | - |
* Rain latest hour (hover to see other rain measurements)
** Current wind speed in m/s (hover to see current wind gust speed)